createdAt,value
2019-02-26T00:01:21.652Z,13.27
2019-02-26T00:03:48.811Z,11.03
2019-02-26T00:06:16.062Z,9.17
2019-02-26T00:08:43.031Z,14.60
2019-02-26T00:11:10.825Z,12.70
2019-02-26T00:13:37.178Z,9.37
2019-02-26T00:16:07.683Z,7.83
2019-02-26T00:18:31.733Z,11.33
2019-02-26T00:20:59.018Z,11.17
2019-02-26T00:23:27.905Z,7.90
2019-02-26T00:25:54.318Z,10.90
2019-02-26T00:28:22.070Z,9.43
2019-02-26T00:30:48.327Z,7.80
2019-02-26T00:33:14.525Z,8.00
2019-02-26T00:35:41.650Z,6.97
2019-02-26T00:38:09.384Z,8.27
2019-02-26T00:40:38.769Z,8.97
2019-02-26T00:43:06.552Z,6.93
2019-02-26T00:45:34.029Z,6.30
2019-02-26T00:48:00.874Z,5.90
2019-02-26T00:50:28.155Z,5.83
2019-02-26T00:52:57.071Z,6.23
2019-02-26T00:55:27.310Z,7.10
2019-02-26T00:57:51.352Z,6.20
2019-02-26T01:00:17.507Z,7.13
2019-02-26T01:02:44.019Z,5.67
2019-02-26T01:05:13.168Z,6.00
2019-02-26T01:07:41.902Z,6.20
2019-02-26T01:10:09.326Z,5.67
2019-02-26T01:12:37.520Z,5.73
2019-02-26T01:15:09.321Z,6.17
2019-02-26T01:17:35.818Z,5.90
2019-02-26T01:20:06.995Z,6.27
2019-02-26T01:22:35.430Z,6.27
2019-02-26T01:25:02.668Z,6.47
2019-02-26T01:27:28.939Z,5.80
2019-02-26T01:29:55.922Z,6.30
2019-02-26T01:32:24.904Z,5.90
2019-02-26T01:34:51.232Z,5.50
2019-02-26T01:37:17.390Z,5.97
2019-02-26T01:39:44.817Z,5.37
2019-02-26T01:42:13.350Z,5.70
2019-02-26T01:44:41.714Z,4.90
2019-02-26T01:47:08.276Z,4.97
2019-02-26T01:49:34.442Z,4.93
2019-02-26T01:52:00.599Z,4.80
2019-02-26T01:54:28.301Z,5.47
2019-02-26T01:56:54.838Z,5.47
2019-02-26T01:59:20.999Z,6.47
2019-02-26T02:01:49.687Z,6.77
2019-02-26T02:04:17.062Z,7.30
2019-02-26T02:06:43.322Z,6.33
2019-02-26T02:09:13.345Z,7.33
2019-02-26T02:11:38.653Z,6.90
2019-02-26T02:14:06.513Z,7.10
2019-02-26T02:16:33.929Z,7.10
2019-02-26T02:19:00.101Z,7.60
2019-02-26T02:21:29.080Z,6.03
2019-02-26T02:23:55.319Z,6.80
2019-02-26T02:26:21.579Z,6.53
2019-02-26T02:28:47.732Z,6.60
2019-02-26T02:31:13.918Z,6.10
2019-02-26T02:33:40.080Z,5.97
2019-02-26T02:36:06.239Z,5.47
2019-02-26T02:38:36.539Z,4.90
2019-02-26T02:41:00.614Z,4.17
2019-02-26T02:43:26.777Z,5.20
2019-02-26T02:45:55.541Z,4.37
2019-02-26T02:48:21.025Z,5.30
2019-02-26T02:50:47.586Z,4.97
2019-02-26T02:53:13.863Z,5.30
2019-02-26T02:55:41.088Z,7.10
2019-02-26T02:58:08.239Z,7.70
2019-02-26T03:00:34.607Z,6.70
2019-02-26T03:03:00.773Z,7.23
2019-02-26T03:05:27.050Z,6.93
2019-02-26T03:07:54.080Z,5.57
2019-02-26T03:10:26.060Z,5.57
2019-02-26T03:12:53.881Z,6.40
2019-02-26T03:15:17.451Z,5.23
2019-02-26T03:17:43.607Z,5.73
2019-02-26T03:20:13.568Z,7.50
2019-02-26T03:22:43.183Z,5.13
2019-02-26T03:25:10.770Z,5.70
2019-02-26T03:27:39.906Z,5.43
2019-02-26T03:30:26.208Z,5.80
2019-02-26T03:32:47.282Z,5.20
2019-02-26T03:35:16.148Z,5.07
2019-02-26T03:37:41.963Z,5.13
2019-02-26T03:40:10.430Z,4.93
2019-02-26T03:42:39.047Z,4.77
2019-02-26T03:45:07.970Z,5.20
2019-02-26T03:47:34.124Z,4.90
2019-02-26T03:50:00.278Z,5.47
2019-02-26T03:52:28.942Z,4.80
2019-02-26T03:54:54.541Z,5.03
2019-02-26T03:57:22.704Z,4.40
2019-02-26T03:59:48.802Z,4.77
2019-02-26T04:02:17.329Z,5.13
2019-02-26T04:04:43.149Z,4.73
2019-02-26T04:07:10.611Z,4.40
2019-02-26T04:09:39.306Z,5.90
2019-02-26T04:12:07.465Z,5.50
2019-02-26T04:14:33.204Z,5.10
2019-02-26T04:17:01.501Z,5.37
2019-02-26T04:19:27.426Z,5.97
2019-02-26T04:22:26.410Z,6.07
2019-02-26T04:24:55.995Z,5.80
2019-02-26T04:27:57.027Z,4.90
2019-02-26T04:30:44.636Z,5.53
2019-02-26T04:33:40.739Z,5.83
2019-02-26T04:36:23.317Z,4.83
2019-02-26T04:39:28.101Z,4.93
2019-02-26T04:42:32.516Z,4.87
2019-02-26T04:45:08.935Z,5.27
2019-02-26T04:47:41.874Z,4.13
2019-02-26T04:50:08.949Z,5.77
2019-02-26T04:52:37.770Z,5.43
2019-02-26T04:55:05.987Z,9.07
2019-02-26T04:57:32.236Z,7.17
2019-02-26T05:00:01.056Z,7.33
2019-02-26T05:02:26.790Z,6.13
2019-02-26T05:04:52.942Z,5.33
2019-02-26T05:07:24.197Z,5.93
2019-02-26T05:09:53.125Z,5.20
2019-02-26T05:12:18.502Z,5.83
2019-02-26T05:14:44.690Z,5.00
2019-02-26T05:17:10.948Z,7.27
2019-02-26T05:19:39.489Z,7.10
2019-02-26T05:22:07.062Z,7.43
2019-02-26T05:24:33.281Z,7.67
2019-02-26T05:27:01.261Z,7.10
2019-02-26T05:29:27.491Z,6.60
2019-02-26T05:31:55.665Z,7.43
2019-02-26T05:34:23.272Z,10.07
2019-02-26T05:36:49.897Z,12.30
2019-02-26T05:39:18.801Z,8.43
2019-02-26T05:41:44.129Z,6.73
2019-02-26T05:44:10.795Z,6.57
2019-02-26T05:46:37.182Z,7.73
2019-02-26T05:49:05.561Z,12.10
2019-02-26T05:51:32.644Z,15.60
2019-02-26T05:54:02.539Z,22.13
2019-02-26T05:56:27.578Z,14.30
2019-02-26T05:58:53.872Z,15.50
2019-02-26T06:01:22.529Z,11.93
2019-02-26T06:03:49.720Z,16.70
2019-02-26T06:06:16.423Z,20.10
2019-02-26T06:08:42.582Z,19.20
2019-02-26T06:11:08.754Z,12.40
2019-02-26T06:13:37.714Z,9.83
2019-02-26T06:16:05.382Z,10.30
2019-02-26T06:18:31.062Z,6.97
2019-02-26T06:20:58.636Z,7.67
2019-02-26T06:23:28.188Z,7.03
2019-02-26T06:25:56.013Z,8.33
2019-02-26T06:28:22.524Z,7.13
2019-02-26T06:30:48.826Z,5.77
2019-02-26T06:33:16.379Z,8.23
2019-02-26T06:35:42.920Z,8.40
2019-02-26T06:38:11.099Z,11.47
2019-02-26T06:40:39.294Z,18.90
2019-02-26T06:43:05.410Z,14.20
2019-02-26T06:45:31.576Z,9.50
2019-02-26T06:47:59.606Z,16.23
2019-02-26T06:50:25.914Z,9.63
2019-02-26T06:52:52.068Z,8.30
2019-02-26T06:55:18.254Z,8.00
2019-02-26T06:57:47.238Z,6.13
2019-02-26T07:00:16.238Z,6.83
2019-02-26T07:02:45.463Z,7.50
2019-02-26T07:05:12.487Z,7.87
2019-02-26T07:07:38.754Z,11.00
2019-02-26T07:10:13.748Z,8.00
2019-02-26T07:12:41.206Z,10.37
2019-02-26T07:15:13.599Z,7.43
2019-02-26T07:17:41.161Z,6.67
2019-02-26T07:20:08.879Z,12.40
2019-02-26T07:22:35.029Z,9.87
2019-02-26T07:25:01.201Z,8.37
2019-02-26T07:27:28.883Z,8.10
2019-02-26T07:29:56.437Z,8.07
2019-02-26T07:32:24.547Z,8.57
2019-02-26T07:34:52.113Z,7.53
2019-02-26T07:37:18.586Z,8.90
2019-02-26T07:39:46.698Z,6.67
2019-02-26T07:42:14.639Z,6.43
2019-02-26T07:44:40.923Z,4.60
2019-02-26T07:47:11.149Z,9.07
2019-02-26T07:49:37.192Z,8.07
2019-02-26T07:52:06.653Z,4.77
2019-02-26T07:54:33.325Z,7.93
2019-02-26T07:57:02.105Z,5.63
2019-02-26T07:59:28.093Z,8.17
2019-02-26T08:01:55.742Z,8.03
2019-02-26T08:04:21.933Z,8.03
2019-02-26T08:06:48.191Z,8.47
2019-02-26T08:09:16.508Z,11.20
2019-02-26T08:11:45.838Z,9.40
2019-02-26T08:14:10.499Z,10.50
2019-02-26T08:16:36.657Z,8.03
2019-02-26T08:19:02.959Z,7.53
2019-02-26T08:21:29.766Z,9.63
2019-02-26T08:23:55.968Z,8.53
2019-02-26T08:26:24.261Z,9.47
2019-02-26T08:28:50.323Z,7.53
2019-02-26T08:31:18.537Z,7.00
2019-02-26T08:33:48.940Z,6.73
2019-02-26T08:36:14.192Z,10.77
2019-02-26T08:38:40.620Z,9.70
2019-02-26T08:41:06.819Z,11.87
2019-02-26T08:43:33.070Z,16.27
2019-02-26T08:45:59.227Z,9.53
2019-02-26T08:48:27.000Z,9.73
2019-02-26T08:50:55.654Z,6.80
2019-02-26T08:53:24.271Z,8.33
2019-02-26T08:55:51.523Z,7.17
2019-02-26T08:58:18.201Z,8.00
2019-02-26T09:00:44.379Z,7.90
2019-02-26T09:03:11.417Z,7.30
2019-02-26T09:05:38.645Z,8.00
2019-02-26T09:08:05.958Z,7.97
2019-02-26T09:10:33.007Z,5.10
2019-02-26T09:12:59.177Z,5.77
2019-02-26T09:15:25.439Z,6.23
2019-02-26T09:17:51.816Z,7.67
2019-02-26T09:20:19.373Z,3.40
2019-02-26T09:23:16.404Z,6.33
2019-02-26T09:26:05.272Z,6.13
2019-02-26T09:31:09.072Z,6.30
2019-02-26T09:33:37.598Z,6.23
2019-02-26T09:36:03.083Z,7.00
2019-02-26T09:41:01.068Z,5.07
2019-02-26T09:43:27.227Z,7.33
2019-02-26T09:46:18.783Z,4.80
2019-02-26T09:48:45.309Z,6.87
2019-02-26T09:51:14.270Z,6.90
2019-02-26T09:53:40.409Z,7.03
2019-02-26T09:56:06.976Z,6.07
2019-02-26T09:58:33.138Z,8.10
2019-02-26T10:00:59.327Z,7.57
2019-02-26T10:03:26.782Z,8.37
2019-02-26T10:05:56.003Z,8.50
2019-02-26T10:08:22.328Z,8.10
2019-02-26T10:10:51.947Z,8.03
2019-02-26T10:13:18.732Z,7.70
2019-02-26T10:15:45.985Z,7.10
2019-02-26T10:18:12.513Z,8.43
2019-02-26T10:20:38.675Z,9.03
2019-02-26T10:23:06.267Z,9.27
2019-02-26T10:25:35.027Z,8.10
2019-02-26T10:28:05.738Z,7.90
2019-02-26T10:30:31.409Z,8.60
2019-02-26T10:33:01.786Z,9.23
2019-02-26T10:35:33.203Z,7.47
2019-02-26T10:38:02.141Z,11.07
2019-02-26T10:40:34.827Z,8.90
2019-02-26T10:42:54.231Z,8.80
2019-02-26T10:45:28.593Z,8.60
2019-02-26T10:47:56.649Z,9.03
2019-02-26T10:50:24.904Z,9.83
2019-02-26T10:52:52.789Z,9.63
2019-02-26T10:55:21.936Z,9.07
2019-02-26T10:57:47.787Z,9.97
2019-02-26T11:00:22.569Z,8.07
2019-02-26T11:02:50.964Z,6.47
2019-02-26T11:05:20.869Z,9.77
2019-02-26T11:07:45.209Z,7.53
2019-02-26T11:10:14.676Z,8.27
2019-02-26T11:12:40.663Z,6.33
2019-02-26T11:15:15.701Z,6.53
2019-02-26T11:17:43.117Z,7.90
2019-02-26T11:20:12.630Z,7.43
2019-02-26T11:22:41.715Z,7.87
2019-02-26T11:25:09.533Z,7.70
2019-02-26T11:27:37.864Z,6.20
2019-02-26T11:30:07.601Z,7.03
2019-02-26T11:32:37.317Z,8.20
2019-02-26T11:35:02.748Z,8.83
2019-02-26T11:37:29.534Z,7.47
2019-02-26T11:39:57.688Z,4.93
2019-02-26T11:42:26.175Z,8.77
2019-02-26T11:44:53.311Z,9.10
2019-02-26T11:47:20.614Z,8.77
2019-02-26T11:49:46.956Z,8.10
2019-02-26T11:52:13.264Z,9.17
2019-02-26T11:54:40.280Z,8.97
2019-02-26T11:57:10.299Z,16.07
2019-02-26T11:59:38.080Z,7.77
2019-02-26T12:02:06.270Z,3.93
2019-02-26T12:04:32.449Z,10.90
2019-02-26T12:07:01.034Z,8.30
2019-02-26T12:09:32.486Z,7.30
2019-02-26T12:11:58.500Z,7.93
2019-02-26T12:14:25.715Z,9.00
2019-02-26T12:16:51.877Z,7.97
2019-02-26T12:19:18.139Z,8.93
2019-02-26T12:21:44.335Z,8.67
2019-02-26T12:24:12.577Z,9.00
2019-02-26T12:26:38.702Z,7.33
2019-02-26T12:29:04.889Z,7.80
2019-02-26T12:31:33.382Z,8.97
2019-02-26T12:33:59.115Z,8.57
2019-02-26T12:36:26.605Z,8.00
2019-02-26T12:38:54.271Z,8.97
2019-02-26T12:41:21.487Z,7.73
2019-02-26T12:43:47.677Z,9.57
2019-02-26T12:46:13.844Z,9.67
2019-02-26T12:48:41.865Z,8.10
2019-02-26T12:51:08.264Z,8.07
2019-02-26T12:53:44.081Z,9.35
2019-02-26T12:56:11.592Z,10.00
2019-02-26T12:58:38.210Z,8.77
2019-02-26T13:01:05.810Z,10.63
2019-02-26T13:03:35.203Z,10.70
2019-02-26T13:06:00.067Z,10.47
2019-02-26T13:08:26.250Z,8.80
2019-02-26T13:10:56.146Z,9.27
2019-02-26T13:13:20.614Z,7.90
2019-02-26T13:15:46.873Z,10.23
2019-02-26T13:18:13.074Z,10.70
2019-02-26T13:20:39.338Z,10.63
2019-02-26T13:23:17.074Z,17.60
2019-02-26T13:25:33.616Z,10.57
2019-02-26T13:27:59.779Z,8.87
2019-02-26T13:30:27.749Z,43.60
2019-02-26T13:32:58.119Z,10.20
2019-02-26T13:35:22.599Z,9.77
2019-02-26T13:37:50.972Z,13.50
2019-02-26T13:40:20.092Z,9.13
2019-02-26T13:42:49.932Z,11.43
2019-02-26T13:45:16.650Z,11.57
2019-02-26T13:47:43.044Z,12.60
2019-02-26T13:50:12.205Z,8.97
2019-02-26T13:52:38.367Z,9.33
2019-02-26T13:55:07.065Z,9.90
2019-02-26T13:57:35.147Z,9.30
2019-02-26T14:00:02.501Z,10.13
2019-02-26T14:02:28.790Z,14.37
2019-02-26T14:04:54.983Z,9.63
2019-02-26T14:07:21.260Z,11.27
2019-02-26T14:09:47.458Z,9.03
2019-02-26T14:12:13.923Z,9.73
2019-02-26T14:14:40.105Z,10.77
2019-02-26T14:17:06.290Z,14.97
2019-02-26T14:19:32.460Z,13.60
2019-02-26T14:21:58.735Z,11.70
2019-02-26T14:24:27.688Z,14.03
2019-02-26T14:26:53.844Z,10.67
2019-02-26T14:29:20.012Z,11.63
2019-02-26T14:31:46.307Z,9.60
2019-02-26T14:34:12.487Z,17.80
2019-02-26T14:36:40.544Z,16.17
2019-02-26T14:39:07.140Z,11.87
2019-02-26T14:41:33.302Z,11.67
2019-02-26T14:43:59.573Z,12.13
2019-02-26T14:46:25.741Z,15.20
2019-02-26T14:48:51.953Z,14.00
2019-02-26T14:51:20.033Z,14.90
2019-02-26T14:53:46.455Z,11.90
2019-02-26T14:56:12.686Z,13.73
2019-02-26T14:58:38.863Z,13.43
2019-02-26T15:01:05.072Z,12.63
2019-02-26T15:03:31.230Z,13.30
2019-02-26T15:05:57.390Z,14.40
2019-02-26T15:08:23.979Z,11.03
2019-02-26T15:10:50.137Z,13.43
2019-02-26T15:13:16.460Z,14.97
2019-02-26T15:15:42.684Z,13.33
2019-02-26T15:18:08.857Z,16.30
2019-02-26T15:20:35.137Z,12.20
2019-02-26T15:23:01.521Z,12.47
2019-02-26T15:25:31.331Z,17.17
2019-02-26T15:28:04.616Z,13.93
2019-02-26T15:30:25.681Z,13.57
2019-02-26T15:32:51.955Z,16.30
2019-02-26T15:35:18.223Z,16.27
2019-02-26T15:37:44.497Z,12.43
2019-02-26T15:40:18.849Z,13.07
2019-02-26T15:42:45.012Z,16.37
2019-02-26T15:45:24.146Z,15.30
2019-02-26T15:47:50.596Z,19.33
2019-02-26T15:50:20.500Z,12.33
2019-02-26T15:52:46.807Z,15.27
2019-02-26T15:55:21.768Z,15.40
2019-02-26T15:57:49.761Z,14.97
2019-02-26T16:00:21.421Z,19.90
2019-02-26T16:02:48.885Z,16.63
2019-02-26T16:05:15.615Z,17.67
2019-02-26T16:07:41.935Z,19.23
2019-02-26T16:10:09.692Z,17.00
2019-02-26T16:12:36.057Z,21.43
2019-02-26T16:15:03.366Z,17.90
2019-02-26T16:17:29.523Z,22.27
2019-02-26T16:19:55.786Z,18.77
2019-02-26T16:22:21.978Z,29.47
2019-02-26T16:24:48.131Z,31.93
2019-02-26T16:27:14.619Z,21.30
2019-02-26T16:29:40.923Z,14.90
2019-02-26T16:32:07.186Z,17.80
2019-02-26T16:34:35.089Z,16.97
2019-02-26T16:37:03.323Z,19.87
2019-02-26T16:39:29.606Z,38.97
2019-02-26T16:41:55.872Z,21.80
2019-02-26T16:44:22.550Z,21.70
2019-02-26T16:46:50.289Z,24.13
2019-02-26T16:49:16.557Z,23.43
2019-02-26T16:51:42.755Z,22.13
2019-02-26T16:54:09.354Z,23.57
2019-02-26T16:56:35.708Z,22.47
2019-02-26T16:59:01.915Z,25.60
2019-02-26T17:01:28.076Z,22.00
2019-02-26T17:03:54.240Z,20.47
2019-02-26T17:06:21.117Z,17.97
2019-02-26T17:08:47.862Z,23.07
2019-02-26T17:11:14.260Z,25.13
2019-02-26T17:13:42.695Z,10.30
2019-02-26T17:16:08.621Z,22.33
2019-02-26T17:18:34.878Z,27.23
2019-02-26T17:21:01.190Z,20.13
2019-02-26T17:23:27.336Z,18.80
2019-02-26T17:25:53.501Z,22.67
2019-02-26T17:28:19.695Z,22.07
2019-02-26T17:30:45.860Z,25.27
2019-02-26T17:33:14.459Z,23.60
2019-02-26T17:35:40.113Z,21.57
2019-02-26T17:38:06.294Z,19.37
2019-02-26T17:40:33.889Z,19.27
2019-02-26T17:43:00.552Z,21.80
2019-02-26T17:45:31.312Z,19.07
2019-02-26T17:47:57.618Z,13.20
2019-02-26T17:50:36.598Z,18.50
2019-02-26T17:53:02.751Z,16.33
2019-02-26T17:55:28.908Z,18.00
2019-02-26T17:57:55.200Z,22.43
2019-02-26T18:00:24.163Z,18.83
2019-02-26T18:02:50.340Z,19.03
2019-02-26T18:05:16.525Z,19.27
2019-02-26T18:07:42.677Z,20.20
2019-02-26T18:10:12.914Z,18.60
2019-02-26T18:12:39.963Z,18.47
2019-02-26T18:15:09.992Z,17.47
2019-02-26T18:17:36.256Z,19.17
2019-02-26T18:20:04.743Z,18.17
2019-02-26T18:22:31.820Z,18.17
2019-02-26T18:24:57.980Z,20.80
2019-02-26T18:27:24.192Z,21.97
2019-02-26T18:29:50.355Z,17.60
2019-02-26T18:32:16.513Z,18.57
2019-02-26T18:34:42.703Z,32.63
2019-02-26T18:37:08.974Z,15.60
2019-02-26T18:39:35.230Z,19.87
2019-02-26T18:42:01.422Z,17.10
2019-02-26T18:44:27.599Z,17.37
2019-02-26T18:46:53.780Z,17.23
2019-02-26T18:49:21.824Z,16.47
2019-02-26T18:51:49.714Z,17.63
2019-02-26T18:54:17.729Z,13.70
2019-02-26T18:56:44.388Z,11.47
2019-02-26T18:59:10.536Z,19.37
2019-02-26T19:01:36.815Z,16.27
2019-02-26T19:04:03.116Z,17.47
2019-02-26T19:06:30.314Z,17.13
2019-02-26T19:08:56.571Z,18.67
2019-02-26T19:11:25.430Z,19.97
2019-02-26T19:13:50.838Z,19.40
2019-02-26T19:16:20.441Z,20.17
2019-02-26T19:18:45.194Z,20.10
2019-02-26T19:21:11.351Z,18.30
2019-02-26T19:23:37.516Z,18.00
2019-02-26T19:26:03.712Z,17.13
2019-02-26T19:28:29.871Z,19.60
2019-02-26T19:30:56.029Z,22.07
2019-02-26T19:33:22.526Z,20.47
2019-02-26T19:35:48.881Z,19.27
2019-02-26T19:38:15.038Z,21.40
2019-02-26T19:40:47.066Z,22.30
2019-02-26T19:43:13.327Z,21.00
2019-02-26T19:45:43.892Z,22.07
2019-02-26T19:48:07.690Z,16.80
2019-02-26T19:50:34.879Z,19.73
2019-02-26T19:53:02.498Z,23.10
2019-02-26T19:55:35.476Z,21.80
2019-02-26T19:58:04.014Z,21.90
2019-02-26T20:00:29.977Z,27.47
2019-02-26T20:02:56.176Z,22.30
2019-02-26T20:05:24.401Z,20.37
2019-02-26T20:07:50.658Z,22.57
2019-02-26T20:10:17.547Z,18.97
2019-02-26T20:12:43.716Z,18.87
2019-02-26T20:15:13.195Z,17.70
2019-02-26T20:17:39.677Z,20.17
2019-02-26T20:20:11.679Z,17.90
2019-02-26T20:22:37.837Z,18.57
2019-02-26T20:25:07.638Z,18.37
2019-02-26T20:27:35.812Z,20.20
2019-02-26T20:30:02.753Z,18.10
2019-02-26T20:32:31.046Z,19.67
2019-02-26T20:34:57.112Z,17.40
2019-02-26T20:37:24.468Z,20.60
2019-02-26T20:39:51.287Z,17.97
2019-02-26T20:42:17.446Z,20.33
2019-02-26T20:44:45.474Z,19.30
2019-02-26T20:47:11.709Z,20.57
2019-02-26T20:49:37.873Z,20.10
2019-02-26T20:52:04.099Z,19.03
2019-02-26T20:54:30.290Z,23.87
2019-02-26T20:56:56.451Z,20.37
2019-02-26T20:59:22.607Z,23.07
2019-02-26T21:01:49.552Z,21.50
2019-02-26T21:04:16.067Z,25.27
2019-02-26T21:06:42.223Z,19.17
2019-02-26T21:09:08.422Z,19.03
2019-02-26T21:11:34.571Z,20.00
2019-02-26T21:14:00.841Z,21.33
2019-02-26T21:16:27.040Z,17.93
2019-02-26T21:18:53.192Z,21.77
2019-02-26T21:21:19.349Z,21.77
2019-02-26T21:23:45.644Z,23.00
2019-02-26T21:26:11.800Z,16.83
2019-02-26T21:28:38.076Z,18.63
2019-02-26T21:31:04.269Z,18.20
2019-02-26T21:33:31.281Z,15.33
2019-02-26T21:35:57.696Z,17.17
2019-02-26T21:38:23.889Z,17.90
2019-02-26T21:40:52.055Z,20.87
2019-02-26T21:43:18.113Z,20.33
2019-02-26T21:45:44.592Z,19.30
2019-02-26T21:48:10.959Z,17.57
2019-02-26T21:50:37.122Z,17.47
2019-02-26T21:53:04.161Z,17.57
2019-02-26T21:55:33.756Z,19.90
2019-02-26T21:57:58.472Z,19.67
2019-02-26T22:00:24.674Z,17.57
2019-02-26T22:02:52.456Z,21.77
2019-02-26T22:05:18.940Z,30.63
2019-02-26T22:07:45.126Z,20.13
2019-02-26T22:10:16.732Z,19.60
2019-02-26T22:12:42.885Z,19.27
2019-02-26T22:15:14.616Z,21.70
2019-02-26T22:17:40.790Z,19.63
2019-02-26T22:20:21.654Z,20.10
2019-02-26T22:22:37.926Z,19.50
2019-02-26T22:25:09.687Z,20.37
2019-02-26T22:27:33.738Z,18.13
2019-02-26T22:30:00.755Z,21.00
2019-02-26T22:32:26.908Z,20.70
2019-02-26T22:34:53.556Z,22.17
2019-02-26T22:37:20.553Z,19.37
2019-02-26T22:39:47.206Z,21.60
2019-02-26T22:42:13.365Z,24.10
2019-02-26T22:44:39.555Z,24.43
2019-02-26T22:47:07.054Z,25.27
2019-02-26T22:49:33.782Z,16.47
2019-02-26T22:51:59.972Z,19.97
2019-02-26T22:54:26.232Z,18.63
2019-02-26T22:56:56.692Z,20.10
2019-02-26T22:59:23.005Z,18.50
2019-02-26T23:01:49.254Z,17.27
2019-02-26T23:04:19.272Z,23.43
2019-02-26T23:06:44.000Z,20.07
2019-02-26T23:09:12.960Z,20.03
2019-02-26T23:11:39.230Z,22.27
2019-02-26T23:14:05.829Z,22.17
2019-02-26T23:16:33.691Z,23.60
2019-02-26T23:19:01.371Z,26.77
2019-02-26T23:21:28.151Z,26.00
2019-02-26T23:23:55.348Z,26.40
2019-02-26T23:26:21.686Z,22.63
2019-02-26T23:28:47.983Z,21.47
2019-02-26T23:31:15.347Z,22.43
2019-02-26T23:33:41.609Z,18.60
2019-02-26T23:36:08.101Z,19.40
2019-02-26T23:38:34.251Z,19.97
2019-02-26T23:41:00.911Z,13.13
2019-02-26T23:43:27.414Z,16.20
2019-02-26T23:45:56.845Z,17.13
2019-02-26T23:48:21.623Z,19.00
2019-02-26T23:50:47.965Z,17.23
2019-02-26T23:53:14.271Z,19.00
2019-02-26T23:55:40.551Z,19.23
2019-02-26T23:58:06.755Z,20.20
